sensor_id;sensor_type;location;lat;lon;timestamp;P1;durP1;ratioP1;P2;durP2;ratioP2
23302;SDS011;11820;48.738;9.092;2023-03-12T00:01:55;3.13;;;1.40;;
23302;SDS011;11820;48.738;9.092;2023-03-12T00:04:21;3.20;;;1.53;;
23302;SDS011;11820;48.738;9.092;2023-03-12T00:06:46;3.53;;;1.33;;
23302;SDS011;11820;48.738;9.092;2023-03-12T00:09:11;2.43;;;1.23;;
23302;SDS011;11820;48.738;9.092;2023-03-12T00:11:36;5.33;;;1.47;;
23302;SDS011;11820;48.738;9.092;2023-03-12T00:14:02;6.13;;;1.33;;
23302;SDS011;11820;48.738;9.092;2023-03-12T00:16:27;2.40;;;1.20;;
23302;SDS011;11820;48.738;9.092;2023-03-12T00:18:53;3.80;;;1.53;;
23302;SDS011;11820;48.738;9.092;2023-03-12T00:21:19;3.90;;;1.43;;
23302;SDS011;11820;48.738;9.092;2023-03-12T00:23:46;3.20;;;1.30;;
23302;SDS011;11820;48.738;9.092;2023-03-12T00:26:13;2.70;;;1.40;;
23302;SDS011;11820;48.738;9.092;2023-03-12T00:28:39;4.67;;;1.57;;
23302;SDS011;11820;48.738;9.092;2023-03-12T00:31:15;6.47;;;1.70;;
23302;SDS011;11820;48.738;9.092;2023-03-12T00:33:52;4.47;;;1.80;;
23302;SDS011;11820;48.738;9.092;2023-03-12T00:36:19;3.60;;;1.50;;
23302;SDS011;11820;48.738;9.092;2023-03-12T00:38:48;2.43;;;1.77;;
23302;SDS011;11820;48.738;9.092;2023-03-12T00:41:13;3.80;;;1.53;;
23302;SDS011;11820;48.738;9.092;2023-03-12T00:43:38;3.07;;;1.43;;
23302;SDS011;11820;48.738;9.092;2023-03-12T00:46:04;3.67;;;1.40;;
23302;SDS011;11820;48.738;9.092;2023-03-12T00:48:29;6.07;;;2.13;;
23302;SDS011;11820;48.738;9.092;2023-03-12T00:50:55;3.70;;;1.53;;
23302;SDS011;11820;48.738;9.092;2023-03-12T00:53:20;3.20;;;1.30;;
23302;SDS011;11820;48.738;9.092;2023-03-12T00:55:45;3.37;;;1.20;;
23302;SDS011;11820;48.738;9.092;2023-03-12T00:58:10;2.97;;;1.70;;
23302;SDS011;11820;48.738;9.092;2023-03-12T01:00:36;3.73;;;1.60;;
23302;SDS011;11820;48.738;9.092;2023-03-12T01:03:01;4.50;;;1.60;;
23302;SDS011;11820;48.738;9.092;2023-03-12T01:05:27;2.93;;;1.57;;
23302;SDS011;11820;48.738;9.092;2023-03-12T01:07:52;3.43;;;1.30;;
23302;SDS011;11820;48.738;9.092;2023-03-12T01:10:18;4.03;;;1.63;;
23302;SDS011;11820;48.738;9.092;2023-03-12T01:12:44;1.97;;;1.47;;
23302;SDS011;11820;48.738;9.092;2023-03-12T01:15:11;4.07;;;1.80;;
23302;SDS011;11820;48.738;9.092;2023-03-12T01:17:38;3.63;;;1.80;;
23302;SDS011;11820;48.738;9.092;2023-03-12T01:20:03;5.03;;;1.93;;
23302;SDS011;11820;48.738;9.092;2023-03-12T01:22:29;5.17;;;2.10;;
23302;SDS011;11820;48.738;9.092;2023-03-12T01:24:55;5.57;;;2.23;;
23302;SDS011;11820;48.738;9.092;2023-03-12T01:27:20;6.00;;;2.00;;
23302;SDS011;11820;48.738;9.092;2023-03-12T01:29:46;4.97;;;1.90;;
23302;SDS011;11820;48.738;9.092;2023-03-12T01:32:11;5.33;;;1.77;;
23302;SDS011;11820;48.738;9.092;2023-03-12T01:34:37;3.23;;;1.63;;
23302;SDS011;11820;48.738;9.092;2023-03-12T01:37:02;4.50;;;1.77;;
23302;SDS011;11820;48.738;9.092;2023-03-12T01:39:27;4.60;;;1.83;;
23302;SDS011;11820;48.738;9.092;2023-03-12T01:41:52;5.00;;;2.33;;
23302;SDS011;11820;48.738;9.092;2023-03-12T01:44:18;6.13;;;2.60;;
23302;SDS011;11820;48.738;9.092;2023-03-12T01:46:44;3.27;;;2.27;;
23302;SDS011;11820;48.738;9.092;2023-03-12T01:49:17;3.43;;;1.83;;
23302;SDS011;11820;48.738;9.092;2023-03-12T01:52:07;4.63;;;2.27;;
23302;SDS011;11820;48.738;9.092;2023-03-12T01:54:41;4.23;;;2.00;;
23302;SDS011;11820;48.738;9.092;2023-03-12T01:57:21;2.97;;;1.80;;
23302;SDS011;11820;48.738;9.092;2023-03-12T01:59:55;6.83;;;2.30;;
23302;SDS011;11820;48.738;9.092;2023-03-12T02:02:23;4.40;;;2.00;;
23302;SDS011;11820;48.738;9.092;2023-03-12T02:04:50;6.17;;;2.03;;
23302;SDS011;11820;48.738;9.092;2023-03-12T02:07:36;3.83;;;2.37;;
23302;SDS011;11820;48.738;9.092;2023-03-12T02:10:02;3.73;;;2.23;;
23302;SDS011;11820;48.738;9.092;2023-03-12T02:12:28;5.07;;;2.20;;
23302;SDS011;11820;48.738;9.092;2023-03-12T02:14:53;4.23;;;2.17;;
23302;SDS011;11820;48.738;9.092;2023-03-12T02:17:18;5.53;;;2.70;;
23302;SDS011;11820;48.738;9.092;2023-03-12T02:22:41;4.07;;;2.33;;
23302;SDS011;11820;48.738;9.092;2023-03-12T02:27:49;6.57;;;2.13;;
23302;SDS011;11820;48.738;9.092;2023-03-12T02:30:15;4.37;;;2.23;;
23302;SDS011;11820;48.738;9.092;2023-03-12T02:32:41;5.43;;;2.67;;
23302;SDS011;11820;48.738;9.092;2023-03-12T02:35:08;4.77;;;2.43;;
23302;SDS011;11820;48.738;9.092;2023-03-12T02:37:33;5.63;;;3.00;;
23302;SDS011;11820;48.738;9.092;2023-03-12T02:40:08;6.93;;;3.40;;
23302;SDS011;11820;48.738;9.092;2023-03-12T02:42:39;5.70;;;3.30;;
23302;SDS011;11820;48.738;9.092;2023-03-12T02:45:05;5.97;;;3.30;;
23302;SDS011;11820;48.738;9.092;2023-03-12T02:47:30;3.20;;;2.57;;
23302;SDS011;11820;48.738;9.092;2023-03-12T02:49:56;6.03;;;3.00;;
23302;SDS011;11820;48.738;9.092;2023-03-12T02:52:21;5.33;;;2.60;;
23302;SDS011;11820;48.738;9.092;2023-03-12T02:54:46;4.97;;;2.27;;
23302;SDS011;11820;48.738;9.092;2023-03-12T02:57:11;3.97;;;2.40;;
23302;SDS011;11820;48.738;9.092;2023-03-12T02:59:37;6.93;;;2.63;;
23302;SDS011;11820;48.738;9.092;2023-03-12T03:02:02;5.53;;;3.03;;
23302;SDS011;11820;48.738;9.092;2023-03-12T03:04:28;3.60;;;2.40;;
23302;SDS011;11820;48.738;9.092;2023-03-12T03:06:54;6.00;;;2.60;;
23302;SDS011;11820;48.738;9.092;2023-03-12T03:09:20;6.53;;;3.00;;
23302;SDS011;11820;48.738;9.092;2023-03-12T03:11:46;3.93;;;2.43;;
23302;SDS011;11820;48.738;9.092;2023-03-12T03:14:13;5.47;;;3.00;;
23302;SDS011;11820;48.738;9.092;2023-03-12T03:16:38;4.03;;;2.83;;
23302;SDS011;11820;48.738;9.092;2023-03-12T03:19:04;8.13;;;3.40;;
23302;SDS011;11820;48.738;9.092;2023-03-12T03:21:29;5.47;;;3.80;;
23302;SDS011;11820;48.738;9.092;2023-03-12T03:23:54;5.97;;;3.30;;
23302;SDS011;11820;48.738;9.092;2023-03-12T03:26:20;6.90;;;3.60;;
23302;SDS011;11820;48.738;9.092;2023-03-12T03:28:48;7.10;;;3.20;;
23302;SDS011;11820;48.738;9.092;2023-03-12T03:31:13;6.37;;;3.60;;
23302;SDS011;11820;48.738;9.092;2023-03-12T03:33:39;6.73;;;3.70;;
23302;SDS011;11820;48.738;9.092;2023-03-12T03:36:05;7.37;;;4.17;;
23302;SDS011;11820;48.738;9.092;2023-03-12T03:38:32;6.43;;;3.00;;
23302;SDS011;11820;48.738;9.092;2023-03-12T03:40:59;4.70;;;2.97;;
23302;SDS011;11820;48.738;9.092;2023-03-12T03:43:24;5.07;;;3.00;;
23302;SDS011;11820;48.738;9.092;2023-03-12T03:45:57;5.63;;;3.93;;
23302;SDS011;11820;48.738;9.092;2023-03-12T03:48:27;10.20;;;3.53;;
23302;SDS011;11820;48.738;9.092;2023-03-12T03:50:53;6.53;;;3.00;;
23302;SDS011;11820;48.738;9.092;2023-03-12T03:53:18;4.93;;;3.13;;
23302;SDS011;11820;48.738;9.092;2023-03-12T03:55:44;5.07;;;2.80;;
23302;SDS011;11820;48.738;9.092;2023-03-12T03:58:10;6.07;;;3.10;;
23302;SDS011;11820;48.738;9.092;2023-03-12T04:00:36;5.40;;;2.90;;
23302;SDS011;11820;48.738;9.092;2023-03-12T04:03:01;3.83;;;2.83;;
23302;SDS011;11820;48.738;9.092;2023-03-12T04:05:26;3.60;;;2.60;;
23302;SDS011;11820;48.738;9.092;2023-03-12T04:07:52;4.77;;;2.97;;
23302;SDS011;11820;48.738;9.092;2023-03-12T04:10:19;5.30;;;2.80;;
23302;SDS011;11820;48.738;9.092;2023-03-12T04:12:45;9.00;;;3.67;;
23302;SDS011;11820;48.738;9.092;2023-03-12T04:15:10;5.10;;;2.40;;
23302;SDS011;11820;48.738;9.092;2023-03-12T04:17:36;5.20;;;3.23;;
23302;SDS011;11820;48.738;9.092;2023-03-12T04:20:01;4.67;;;3.00;;
23302;SDS011;11820;48.738;9.092;2023-03-12T04:22:31;5.60;;;3.03;;
23302;SDS011;11820;48.738;9.092;2023-03-12T04:24:56;6.40;;;3.40;;
23302;SDS011;11820;48.738;9.092;2023-03-12T04:27:21;5.67;;;2.97;;
23302;SDS011;11820;48.738;9.092;2023-03-12T04:29:46;3.53;;;3.00;;
23302;SDS011;11820;48.738;9.092;2023-03-12T04:32:12;5.43;;;3.73;;
23302;SDS011;11820;48.738;9.092;2023-03-12T04:34:37;4.37;;;3.07;;
23302;SDS011;11820;48.738;9.092;2023-03-12T04:37:02;5.97;;;3.17;;
23302;SDS011;11820;48.738;9.092;2023-03-12T04:39:28;3.20;;;2.90;;
23302;SDS011;11820;48.738;9.092;2023-03-12T04:41:53;7.37;;;3.67;;
23302;SDS011;11820;48.738;9.092;2023-03-12T04:44:19;6.50;;;3.53;;
23302;SDS011;11820;48.738;9.092;2023-03-12T04:46:44;7.50;;;3.73;;
23302;SDS011;11820;48.738;9.092;2023-03-12T04:49:09;5.30;;;3.60;;
23302;SDS011;11820;48.738;9.092;2023-03-12T04:51:35;7.67;;;4.13;;
23302;SDS011;11820;48.738;9.092;2023-03-12T04:54:00;4.43;;;3.93;;
23302;SDS011;11820;48.738;9.092;2023-03-12T04:56:25;7.93;;;3.47;;
23302;SDS011;11820;48.738;9.092;2023-03-12T04:58:51;5.07;;;3.27;;
23302;SDS011;11820;48.738;9.092;2023-03-12T05:01:30;5.53;;;3.33;;
23302;SDS011;11820;48.738;9.092;2023-03-12T05:03:57;6.00;;;3.33;;
23302;SDS011;11820;48.738;9.092;2023-03-12T05:06:23;4.33;;;3.70;;
23302;SDS011;11820;48.738;9.092;2023-03-12T05:08:49;9.40;;;3.73;;
23302;SDS011;11820;48.738;9.092;2023-03-12T05:11:15;8.53;;;4.00;;
23302;SDS011;11820;48.738;9.092;2023-03-12T05:13:40;5.50;;;3.43;;
23302;SDS011;11820;48.738;9.092;2023-03-12T05:16:06;6.43;;;3.77;;
23302;SDS011;11820;48.738;9.092;2023-03-12T05:18:32;4.60;;;3.60;;
23302;SDS011;11820;48.738;9.092;2023-03-12T05:21:01;6.60;;;3.30;;
23302;SDS011;11820;48.738;9.092;2023-03-12T05:23:27;5.00;;;3.50;;
23302;SDS011;11820;48.738;9.092;2023-03-12T05:25:53;4.27;;;3.53;;
23302;SDS011;11820;48.738;9.092;2023-03-12T05:28:19;6.23;;;3.73;;
23302;SDS011;11820;48.738;9.092;2023-03-12T05:30:45;7.40;;;3.93;;
23302;SDS011;11820;48.738;9.092;2023-03-12T05:33:11;6.50;;;3.40;;
23302;SDS011;11820;48.738;9.092;2023-03-12T05:35:36;5.50;;;3.33;;
23302;SDS011;11820;48.738;9.092;2023-03-12T05:38:02;5.50;;;3.10;;
23302;SDS011;11820;48.738;9.092;2023-03-12T05:40:29;5.00;;;3.10;;
23302;SDS011;11820;48.738;9.092;2023-03-12T05:42:55;5.50;;;3.23;;
23302;SDS011;11820;48.738;9.092;2023-03-12T05:45:20;4.77;;;3.60;;
23302;SDS011;11820;48.738;9.092;2023-03-12T05:47:45;4.47;;;3.43;;
23302;SDS011;11820;48.738;9.092;2023-03-12T05:50:11;7.00;;;3.93;;
23302;SDS011;11820;48.738;9.092;2023-03-12T05:52:36;6.10;;;2.50;;
23302;SDS011;11820;48.738;9.092;2023-03-12T05:55:02;5.77;;;3.53;;
23302;SDS011;11820;48.738;9.092;2023-03-12T05:57:27;3.43;;;2.87;;
23302;SDS011;11820;48.738;9.092;2023-03-12T05:59:53;4.17;;;3.10;;
23302;SDS011;11820;48.738;9.092;2023-03-12T06:02:19;3.20;;;2.90;;
23302;SDS011;11820;48.738;9.092;2023-03-12T06:04:45;3.77;;;2.90;;
23302;SDS011;11820;48.738;9.092;2023-03-12T06:07:10;3.87;;;2.93;;
23302;SDS011;11820;48.738;9.092;2023-03-12T06:09:36;3.60;;;2.93;;
23302;SDS011;11820;48.738;9.092;2023-03-12T06:12:01;7.97;;;3.17;;
23302;SDS011;11820;48.738;9.092;2023-03-12T06:14:26;5.23;;;2.83;;
23302;SDS011;11820;48.738;9.092;2023-03-12T06:16:52;3.53;;;2.73;;
23302;SDS011;11820;48.738;9.092;2023-03-12T06:19:17;4.60;;;3.27;;
23302;SDS011;11820;48.738;9.092;2023-03-12T06:21:42;5.00;;;3.00;;
23302;SDS011;11820;48.738;9.092;2023-03-12T06:24:08;4.50;;;3.03;;
23302;SDS011;11820;48.738;9.092;2023-03-12T06:26:34;5.17;;;3.50;;
23302;SDS011;11820;48.738;9.092;2023-03-12T06:28:59;4.43;;;3.87;;
23302;SDS011;11820;48.738;9.092;2023-03-12T06:31:24;10.30;;;3.60;;
23302;SDS011;11820;48.738;9.092;2023-03-12T06:33:50;3.80;;;3.50;;
23302;SDS011;11820;48.738;9.092;2023-03-12T06:36:17;4.23;;;3.50;;
23302;SDS011;11820;48.738;9.092;2023-03-12T06:38:43;4.67;;;3.37;;
23302;SDS011;11820;48.738;9.092;2023-03-12T06:41:10;6.93;;;3.53;;
23302;SDS011;11820;48.738;9.092;2023-03-12T06:43:40;5.83;;;3.90;;
23302;SDS011;11820;48.738;9.092;2023-03-12T06:46:07;4.50;;;3.23;;
23302;SDS011;11820;48.738;9.092;2023-03-12T06:48:35;4.57;;;3.70;;
23302;SDS011;11820;48.738;9.092;2023-03-12T06:51:01;10.47;;;3.57;;
23302;SDS011;11820;48.738;9.092;2023-03-12T06:53:30;6.17;;;4.00;;
23302;SDS011;11820;48.738;9.092;2023-03-12T06:55:56;4.77;;;3.73;;
23302;SDS011;11820;48.738;9.092;2023-03-12T06:58:22;8.07;;;4.20;;
23302;SDS011;11820;48.738;9.092;2023-03-12T07:00:47;8.40;;;4.37;;
23302;SDS011;11820;48.738;9.092;2023-03-12T07:03:12;7.43;;;4.13;;
23302;SDS011;11820;48.738;9.092;2023-03-12T07:05:38;6.67;;;4.10;;
23302;SDS011;11820;48.738;9.092;2023-03-12T07:08:03;7.30;;;4.17;;
23302;SDS011;11820;48.738;9.092;2023-03-12T07:10:29;7.03;;;3.33;;
23302;SDS011;11820;48.738;9.092;2023-03-12T07:12:55;3.90;;;3.37;;
23302;SDS011;11820;48.738;9.092;2023-03-12T07:15:21;3.73;;;2.73;;
23302;SDS011;11820;48.738;9.092;2023-03-12T07:17:46;7.00;;;3.30;;
23302;SDS011;11820;48.738;9.092;2023-03-12T07:20:12;5.60;;;2.73;;
23302;SDS011;11820;48.738;9.092;2023-03-12T07:22:38;8.17;;;3.17;;
23302;SDS011;11820;48.738;9.092;2023-03-12T07:25:04;3.10;;;2.80;;
23302;SDS011;11820;48.738;9.092;2023-03-12T07:27:29;6.07;;;3.43;;
23302;SDS011;11820;48.738;9.092;2023-03-12T07:29:54;3.87;;;3.03;;
23302;SDS011;11820;48.738;9.092;2023-03-12T07:32:20;3.60;;;2.90;;
23302;SDS011;11820;48.738;9.092;2023-03-12T07:34:45;5.97;;;3.07;;
23302;SDS011;11820;48.738;9.092;2023-03-12T07:37:10;4.70;;;3.13;;
23302;SDS011;11820;48.738;9.092;2023-03-12T07:39:36;6.03;;;3.10;;
23302;SDS011;11820;48.738;9.092;2023-03-12T07:42:01;3.77;;;3.00;;
23302;SDS011;11820;48.738;9.092;2023-03-12T07:44:26;4.90;;;3.00;;
23302;SDS011;11820;48.738;9.092;2023-03-12T07:46:52;3.97;;;3.17;;
23302;SDS011;11820;48.738;9.092;2023-03-12T07:49:18;5.80;;;3.13;;
23302;SDS011;11820;48.738;9.092;2023-03-12T07:51:44;3.53;;;3.10;;
23302;SDS011;11820;48.738;9.092;2023-03-12T07:54:09;3.73;;;2.70;;
23302;SDS011;11820;48.738;9.092;2023-03-12T07:56:35;3.53;;;2.50;;
23302;SDS011;11820;48.738;9.092;2023-03-12T07:59:00;4.73;;;3.00;;
23302;SDS011;11820;48.738;9.092;2023-03-12T08:01:25;5.93;;;2.93;;
23302;SDS011;11820;48.738;9.092;2023-03-12T08:03:56;6.50;;;3.07;;
23302;SDS011;11820;48.738;9.092;2023-03-12T08:06:22;3.67;;;2.60;;
23302;SDS011;11820;48.738;9.092;2023-03-12T08:08:48;6.57;;;3.33;;
23302;SDS011;11820;48.738;9.092;2023-03-12T08:11:14;6.57;;;3.10;;
23302;SDS011;11820;48.738;9.092;2023-03-12T08:13:39;4.00;;;2.73;;
23302;SDS011;11820;48.738;9.092;2023-03-12T08:16:04;4.67;;;3.40;;
23302;SDS011;11820;48.738;9.092;2023-03-12T08:18:30;6.57;;;3.37;;
23302;SDS011;11820;48.738;9.092;2023-03-12T08:20:55;3.93;;;3.33;;
23302;SDS011;11820;48.738;9.092;2023-03-12T08:23:20;5.13;;;4.07;;
23302;SDS011;11820;48.738;9.092;2023-03-12T08:25:47;4.83;;;3.53;;
23302;SDS011;11820;48.738;9.092;2023-03-12T08:28:13;6.47;;;4.40;;
23302;SDS011;11820;48.738;9.092;2023-03-12T08:30:44;5.87;;;4.30;;
23302;SDS011;11820;48.738;9.092;2023-03-12T08:33:13;6.70;;;4.73;;
23302;SDS011;11820;48.738;9.092;2023-03-12T08:35:38;5.03;;;4.53;;
23302;SDS011;11820;48.738;9.092;2023-03-12T08:38:04;7.73;;;5.13;;
23302;SDS011;11820;48.738;9.092;2023-03-12T08:40:29;6.63;;;5.03;;
23302;SDS011;11820;48.738;9.092;2023-03-12T08:42:54;6.97;;;5.53;;
23302;SDS011;11820;48.738;9.092;2023-03-12T08:45:20;6.40;;;5.47;;
23302;SDS011;11820;48.738;9.092;2023-03-12T08:47:45;6.30;;;5.10;;
23302;SDS011;11820;48.738;9.092;2023-03-12T08:50:11;7.13;;;5.23;;
23302;SDS011;11820;48.738;9.092;2023-03-12T08:52:38;6.43;;;4.90;;
23302;SDS011;11820;48.738;9.092;2023-03-12T08:55:03;7.07;;;5.50;;
23302;SDS011;11820;48.738;9.092;2023-03-12T08:57:30;6.33;;;5.50;;
23302;SDS011;11820;48.738;9.092;2023-03-12T08:59:56;8.17;;;5.60;;
23302;SDS011;11820;48.738;9.092;2023-03-12T09:02:21;6.60;;;5.20;;
23302;SDS011;11820;48.738;9.092;2023-03-12T09:04:47;8.03;;;5.77;;
23302;SDS011;11820;48.738;9.092;2023-03-12T09:07:13;7.40;;;5.77;;
23302;SDS011;11820;48.738;9.092;2023-03-12T09:09:39;6.63;;;5.50;;
23302;SDS011;11820;48.738;9.092;2023-03-12T09:12:04;6.63;;;5.90;;
23302;SDS011;11820;48.738;9.092;2023-03-12T09:14:30;7.63;;;5.90;;
23302;SDS011;11820;48.738;9.092;2023-03-12T09:16:55;6.30;;;5.70;;
23302;SDS011;11820;48.738;9.092;2023-03-12T09:19:21;6.03;;;5.43;;
23302;SDS011;11820;48.738;9.092;2023-03-12T09:21:47;6.70;;;5.10;;
23302;SDS011;11820;48.738;9.092;2023-03-12T09:24:12;5.93;;;5.27;;
23302;SDS011;11820;48.738;9.092;2023-03-12T09:26:37;6.63;;;5.47;;
23302;SDS011;11820;48.738;9.092;2023-03-12T09:29:03;5.83;;;5.00;;
23302;SDS011;11820;48.738;9.092;2023-03-12T09:31:28;10.33;;;4.73;;
23302;SDS011;11820;48.738;9.092;2023-03-12T09:33:53;4.93;;;4.43;;
23302;SDS011;11820;48.738;9.092;2023-03-12T09:36:19;4.70;;;4.30;;
23302;SDS011;11820;48.738;9.092;2023-03-12T09:38:44;5.13;;;4.63;;
23302;SDS011;11820;48.738;9.092;2023-03-12T09:41:14;5.13;;;4.63;;
23302;SDS011;11820;48.738;9.092;2023-03-12T09:43:48;5.53;;;4.80;;
23302;SDS011;11820;48.738;9.092;2023-03-12T09:46:20;8.30;;;3.97;;
23302;SDS011;11820;48.738;9.092;2023-03-12T09:48:49;4.63;;;4.20;;
23302;SDS011;11820;48.738;9.092;2023-03-12T09:51:19;5.37;;;3.77;;
23302;SDS011;11820;48.738;9.092;2023-03-12T09:53:52;9.23;;;3.67;;
23302;SDS011;11820;48.738;9.092;2023-03-12T09:56:22;6.63;;;3.90;;
23302;SDS011;11820;48.738;9.092;2023-03-12T09:58:48;6.67;;;3.90;;
23302;SDS011;11820;48.738;9.092;2023-03-12T10:06:46;3.90;;;3.47;;
23302;SDS011;11820;48.738;9.092;2023-03-12T10:11:53;4.70;;;3.90;;
23302;SDS011;11820;48.738;9.092;2023-03-12T10:17:18;6.67;;;3.50;;
23302;SDS011;11820;48.738;9.092;2023-03-12T10:28:10;7.47;;;2.93;;
23302;SDS011;11820;48.738;9.092;2023-03-12T10:30:40;3.77;;;3.20;;
23302;SDS011;11820;48.738;9.092;2023-03-12T10:33:11;8.47;;;3.30;;
23302;SDS011;11820;48.738;9.092;2023-03-12T10:35:37;6.00;;;3.20;;
23302;SDS011;11820;48.738;9.092;2023-03-12T10:38:04;4.50;;;3.50;;
23302;SDS011;11820;48.738;9.092;2023-03-12T10:40:37;4.00;;;2.40;;
23302;SDS011;11820;48.738;9.092;2023-03-12T10:43:04;3.67;;;2.90;;
23302;SDS011;11820;48.738;9.092;2023-03-12T10:48:25;3.17;;;2.87;;
23302;SDS011;11820;48.738;9.092;2023-03-12T10:51:10;5.67;;;3.70;;
23302;SDS011;11820;48.738;9.092;2023-03-12T10:56:13;4.87;;;2.73;;
23302;SDS011;11820;48.738;9.092;2023-03-12T10:58:41;2.70;;;2.20;;
23302;SDS011;11820;48.738;9.092;2023-03-12T11:01:27;3.13;;;2.43;;
23302;SDS011;11820;48.738;9.092;2023-03-12T11:07:04;2.90;;;1.77;;
23302;SDS011;11820;48.738;9.092;2023-03-12T11:09:35;5.33;;;1.53;;
23302;SDS011;11820;48.738;9.092;2023-03-12T11:12:00;2.37;;;1.80;;
23302;SDS011;11820;48.738;9.092;2023-03-12T11:14:26;1.57;;;1.40;;
23302;SDS011;11820;48.738;9.092;2023-03-12T11:16:54;3.30;;;0.90;;
23302;SDS011;11820;48.738;9.092;2023-03-12T11:19:31;3.07;;;1.10;;
23302;SDS011;11820;48.738;9.092;2023-03-12T11:22:02;2.03;;;0.93;;
23302;SDS011;11820;48.738;9.092;2023-03-12T11:24:29;2.00;;;1.00;;
23302;SDS011;11820;48.738;9.092;2023-03-12T11:27:02;0.83;;;0.70;;
23302;SDS011;11820;48.738;9.092;2023-03-12T11:29:32;2.03;;;0.60;;
23302;SDS011;11820;48.738;9.092;2023-03-12T11:32:30;1.13;;;0.87;;
23302;SDS011;11820;48.738;9.092;2023-03-12T11:34:59;1.07;;;0.80;;
23302;SDS011;11820;48.738;9.092;2023-03-12T11:40:15;1.33;;;0.80;;
23302;SDS011;11820;48.738;9.092;2023-03-12T11:48:37;2.03;;;0.97;;
23302;SDS011;11820;48.738;9.092;2023-03-12T11:53:47;1.43;;;0.77;;
23302;SDS011;11820;48.738;9.092;2023-03-12T11:56:48;1.60;;;0.73;;
23302;SDS011;11820;48.738;9.092;2023-03-12T12:26:43;3.20;;;1.10;;
23302;SDS011;11820;48.738;9.092;2023-03-12T12:29:13;3.70;;;1.20;;
23302;SDS011;11820;48.738;9.092;2023-03-12T12:32:09;2.40;;;0.83;;
23302;SDS011;11820;48.738;9.092;2023-03-12T12:40:17;5.13;;;1.60;;
23302;SDS011;11820;48.738;9.092;2023-03-12T12:42:49;3.30;;;1.23;;
23302;SDS011;11820;48.738;9.092;2023-03-12T12:45:20;2.67;;;1.17;;
23302;SDS011;11820;48.738;9.092;2023-03-12T12:48:23;3.57;;;1.10;;
23302;SDS011;11820;48.738;9.092;2023-03-12T12:50:43;2.60;;;1.20;;
23302;SDS011;11820;48.738;9.092;2023-03-12T12:55:53;3.83;;;1.43;;
23302;SDS011;11820;48.738;9.092;2023-03-12T13:01:30;4.50;;;1.80;;
23302;SDS011;11820;48.738;9.092;2023-03-12T13:04:05;5.27;;;1.37;;
23302;SDS011;11820;48.738;9.092;2023-03-12T13:12:06;3.60;;;1.40;;
23302;SDS011;11820;48.738;9.092;2023-03-12T13:14:52;5.50;;;1.60;;
23302;SDS011;11820;48.738;9.092;2023-03-12T13:17:25;4.13;;;1.43;;
23302;SDS011;11820;48.738;9.092;2023-03-12T13:22:56;4.17;;;0.93;;
23302;SDS011;11820;48.738;9.092;2023-03-12T13:25:25;4.33;;;1.23;;
23302;SDS011;11820;48.738;9.092;2023-03-12T13:28:00;4.43;;;1.10;;
23302;SDS011;11820;48.738;9.092;2023-03-12T13:30:49;2.87;;;1.03;;
23302;SDS011;11820;48.738;9.092;2023-03-12T13:33:16;3.97;;;1.10;;
23302;SDS011;11820;48.738;9.092;2023-03-12T13:39:17;4.13;;;1.10;;
23302;SDS011;11820;48.738;9.092;2023-03-12T13:41:39;4.47;;;1.43;;
23302;SDS011;11820;48.738;9.092;2023-03-12T14:00:25;4.40;;;1.30;;
23302;SDS011;11820;48.738;9.092;2023-03-12T14:03:13;3.87;;;1.13;;
23302;SDS011;11820;48.738;9.092;2023-03-12T14:05:53;3.90;;;1.40;;
23302;SDS011;11820;48.738;9.092;2023-03-12T14:08:52;1.87;;;1.13;;
23302;SDS011;11820;48.738;9.092;2023-03-12T14:17:15;2.33;;;1.20;;
23302;SDS011;11820;48.738;9.092;2023-03-12T14:19:49;3.53;;;1.30;;
23302;SDS011;11820;48.738;9.092;2023-03-12T14:22:20;4.32;;;1.33;;
23302;SDS011;11820;48.738;9.092;2023-03-12T14:24:49;4.23;;;1.00;;
23302;SDS011;11820;48.738;9.092;2023-03-12T14:27:28;4.03;;;1.50;;
23302;SDS011;11820;48.738;9.092;2023-03-12T14:29:56;2.33;;;1.00;;
23302;SDS011;11820;48.738;9.092;2023-03-12T14:32:28;2.33;;;1.20;;
23302;SDS011;11820;48.738;9.092;2023-03-12T14:37:51;3.10;;;1.17;;
23302;SDS011;11820;48.738;9.092;2023-03-12T14:40:25;5.03;;;1.53;;
23302;SDS011;11820;48.738;9.092;2023-03-12T14:42:57;2.27;;;0.97;;
23302;SDS011;11820;48.738;9.092;2023-03-12T14:45:23;1.43;;;0.80;;
23302;SDS011;11820;48.738;9.092;2023-03-12T14:47:54;1.63;;;0.80;;
23302;SDS011;11820;48.738;9.092;2023-03-12T14:50:28;2.60;;;1.23;;
23302;SDS011;11820;48.738;9.092;2023-03-12T14:53:11;1.67;;;0.93;;
23302;SDS011;11820;48.738;9.092;2023-03-12T14:55:41;2.60;;;0.80;;
23302;SDS011;11820;48.738;9.092;2023-03-12T14:58:16;1.80;;;0.97;;
23302;SDS011;11820;48.738;9.092;2023-03-12T15:00:44;3.47;;;0.97;;
23302;SDS011;11820;48.738;9.092;2023-03-12T15:03:18;3.70;;;1.10;;
23302;SDS011;11820;48.738;9.092;2023-03-12T15:05:47;2.20;;;1.10;;
23302;SDS011;11820;48.738;9.092;2023-03-12T15:08:13;3.30;;;1.37;;
23302;SDS011;11820;48.738;9.092;2023-03-12T15:10:40;2.07;;;1.17;;
23302;SDS011;11820;48.738;9.092;2023-03-12T15:13:12;5.10;;;1.40;;
23302;SDS011;11820;48.738;9.092;2023-03-12T15:18:10;4.73;;;1.60;;
23302;SDS011;11820;48.738;9.092;2023-03-12T15:20:39;3.63;;;1.27;;
23302;SDS011;11820;48.738;9.092;2023-03-12T15:23:05;2.70;;;1.23;;
23302;SDS011;11820;48.738;9.092;2023-03-12T15:25:33;4.10;;;1.20;;
23302;SDS011;11820;48.738;9.092;2023-03-12T15:28:00;6.13;;;1.73;;
23302;SDS011;11820;48.738;9.092;2023-03-12T15:30:28;6.07;;;1.33;;
23302;SDS011;11820;48.738;9.092;2023-03-12T15:33:10;4.00;;;1.53;;
23302;SDS011;11820;48.738;9.092;2023-03-12T15:35:57;3.97;;;1.60;;
23302;SDS011;11820;48.738;9.092;2023-03-12T15:38:28;6.93;;;1.80;;
23302;SDS011;11820;48.738;9.092;2023-03-12T15:40:56;5.37;;;1.73;;
23302;SDS011;11820;48.738;9.092;2023-03-12T15:43:30;4.30;;;1.77;;
23302;SDS011;11820;48.738;9.092;2023-03-12T15:45:59;5.17;;;1.20;;
23302;SDS011;11820;48.738;9.092;2023-03-12T15:51:00;4.20;;;1.30;;
23302;SDS011;11820;48.738;9.092;2023-03-12T15:53:27;5.63;;;1.83;;
23302;SDS011;11820;48.738;9.092;2023-03-12T15:58:44;3.13;;;1.50;;
23302;SDS011;11820;48.738;9.092;2023-03-12T16:01:14;5.97;;;1.80;;
23302;SDS011;11820;48.738;9.092;2023-03-12T16:03:42;5.27;;;1.87;;
23302;SDS011;11820;48.738;9.092;2023-03-12T16:06:19;8.00;;;1.60;;
23302;SDS011;11820;48.738;9.092;2023-03-12T16:08:50;12.07;;;2.07;;
23302;SDS011;11820;48.738;9.092;2023-03-12T16:11:22;4.83;;;1.70;;
23302;SDS011;11820;48.738;9.092;2023-03-12T16:13:51;5.80;;;2.27;;
23302;SDS011;11820;48.738;9.092;2023-03-12T16:16:25;6.57;;;1.83;;
23302;SDS011;11820;48.738;9.092;2023-03-12T16:18:51;8.37;;;2.00;;
23302;SDS011;11820;48.738;9.092;2023-03-12T16:21:16;11.23;;;2.10;;
23302;SDS011;11820;48.738;9.092;2023-03-12T16:23:41;7.90;;;2.63;;
23302;SDS011;11820;48.738;9.092;2023-03-12T16:26:07;8.17;;;1.80;;
23302;SDS011;11820;48.738;9.092;2023-03-12T16:28:33;7.37;;;2.07;;
23302;SDS011;11820;48.738;9.092;2023-03-12T16:30:59;5.77;;;1.83;;
23302;SDS011;11820;48.738;9.092;2023-03-12T16:33:25;5.43;;;1.67;;
23302;SDS011;11820;48.738;9.092;2023-03-12T16:35:50;9.93;;;2.83;;
23302;SDS011;11820;48.738;9.092;2023-03-12T16:38:16;7.80;;;1.73;;
23302;SDS011;11820;48.738;9.092;2023-03-12T16:40:45;6.73;;;2.37;;
23302;SDS011;11820;48.738;9.092;2023-03-12T16:43:16;5.30;;;1.77;;
23302;SDS011;11820;48.738;9.092;2023-03-12T16:45:44;8.50;;;2.30;;
23302;SDS011;11820;48.738;9.092;2023-03-12T16:48:29;7.25;;;1.95;;
23302;SDS011;11820;48.738;9.092;2023-03-12T16:50:55;5.70;;;2.03;;
23302;SDS011;11820;48.738;9.092;2023-03-12T16:53:21;7.87;;;2.43;;
23302;SDS011;11820;48.738;9.092;2023-03-12T16:55:48;5.43;;;2.13;;
23302;SDS011;11820;48.738;9.092;2023-03-12T16:58:17;8.47;;;2.13;;
23302;SDS011;11820;48.738;9.092;2023-03-12T17:00:45;7.67;;;2.30;;
23302;SDS011;11820;48.738;9.092;2023-03-12T17:03:15;7.03;;;2.20;;